sensor_id;sensor_type;location;lat;lon;timestamp;pressure;altitude;pressure_sealevel;temperature;humidity
42887;BME280;29032;56.028;92.904;2023-04-02T00:02:33;102346.41;;;-7.01;41.06
42887;BME280;29032;56.028;92.904;2023-04-02T00:07:47;102356.41;;;-7.01;41.47
42887;BME280;29032;56.028;92.904;2023-04-02T00:13:00;102359.94;;;-6.89;41.30
42887;BME280;29032;56.028;92.904;2023-04-02T00:18:23;102354.97;;;-6.99;41.11
42887;BME280;29032;56.028;92.904;2023-04-02T00:23:27;102354.72;;;-7.06;42.28
42887;BME280;29032;56.028;92.904;2023-04-02T00:28:31;102353.63;;;-7.14;42.19
42887;BME280;29032;56.028;92.904;2023-04-02T00:33:34;102355.59;;;-7.23;41.95
42887;BME280;29032;56.028;92.904;2023-04-02T00:38:38;102360.28;;;-7.11;42.27
42887;BME280;29032;56.028;92.904;2023-04-02T00:43:44;102358.81;;;-6.88;41.79
42887;BME280;29032;56.028;92.904;2023-04-02T00:48:51;102356.44;;;-6.68;41.49
42887;BME280;29032;56.028;92.904;2023-04-02T00:54:18;102357.38;;;-6.52;41.00
42887;BME280;29032;56.028;92.904;2023-04-02T00:59:27;102357.72;;;-6.54;41.12
42887;BME280;29032;56.028;92.904;2023-04-02T01:04:31;102351.72;;;-6.59;41.18
42887;BME280;29032;56.028;92.904;2023-04-02T01:09:47;102360.47;;;-6.29;41.63
42887;BME280;29032;56.028;92.904;2023-04-02T01:15:00;102353.03;;;-5.99;41.20
42887;BME280;29032;56.028;92.904;2023-04-02T01:20:47;102356.63;;;-5.83;40.49
42887;BME280;29032;56.028;92.904;2023-04-02T01:26:25;102355.38;;;-5.73;40.82
42887;BME280;29032;56.028;92.904;2023-04-02T01:31:34;102365.44;;;-5.61;40.45
42887;BME280;29032;56.028;92.904;2023-04-02T01:36:42;102371.06;;;-5.66;40.73
42887;BME280;29032;56.028;92.904;2023-04-02T01:41:53;102361.94;;;-5.62;40.54
42887;BME280;29032;56.028;92.904;2023-04-02T01:47:01;102352.13;;;-5.54;40.77
42887;BME280;29032;56.028;92.904;2023-04-02T01:52:04;102361.47;;;-5.27;40.85
42887;BME280;29032;56.028;92.904;2023-04-02T01:57:27;102348.78;;;-5.11;40.68
42887;BME280;29032;56.028;92.904;2023-04-02T02:02:31;102359.66;;;-4.83;40.39
42887;BME280;29032;56.028;92.904;2023-04-02T02:07:34;102362.09;;;-4.66;40.23
42887;BME280;29032;56.028;92.904;2023-04-02T02:12:38;102366.06;;;-4.47;40.03
42887;BME280;29032;56.028;92.904;2023-04-02T02:17:42;102372.31;;;-4.31;39.86
42887;BME280;29032;56.028;92.904;2023-04-02T02:22:46;102364.22;;;-4.15;39.70
42887;BME280;29032;56.028;92.904;2023-04-02T02:27:57;102369.56;;;-4.03;39.25
42887;BME280;29032;56.028;92.904;2023-04-02T02:33:23;102369.81;;;-3.92;39.46
42887;BME280;29032;56.028;92.904;2023-04-02T02:38:39;102374.03;;;-3.79;38.87
42887;BME280;29032;56.028;92.904;2023-04-02T02:44:04;102375.88;;;-3.67;39.22
42887;BME280;29032;56.028;92.904;2023-04-02T02:49:35;102365.34;;;-3.53;38.99
42887;BME280;29032;56.028;92.904;2023-04-02T02:55:00;102361.72;;;-3.41;38.03
42887;BME280;29032;56.028;92.904;2023-04-02T03:00:15;102357.75;;;-3.28;38.71
42887;BME280;29032;56.028;92.904;2023-04-02T03:05:22;102351.44;;;-3.16;38.16
42887;BME280;29032;56.028;92.904;2023-04-02T03:10:32;102351.63;;;-3.06;38.34
42887;BME280;29032;56.028;92.904;2023-04-02T03:15:45;102350.38;;;-2.92;38.94
42887;BME280;29032;56.028;92.904;2023-04-02T03:21:17;102348.22;;;-2.83;38.14
42887;BME280;29032;56.028;92.904;2023-04-02T03:26:44;102346.88;;;-2.74;37.95
42887;BME280;29032;56.028;92.904;2023-04-02T03:31:56;102348.34;;;-2.57;37.65
42887;BME280;29032;56.028;92.904;2023-04-02T03:37:26;102331.28;;;-2.34;37.27
42887;BME280;29032;56.028;92.904;2023-04-02T03:43:15;102333.97;;;-2.15;37.43
42887;BME280;29032;56.028;92.904;2023-04-02T03:48:43;102332.22;;;-2.04;37.23
42887;BME280;29032;56.028;92.904;2023-04-02T03:53:50;102325.84;;;-1.89;36.81
42887;BME280;29032;56.028;92.904;2023-04-02T03:59:00;102316.72;;;-1.77;36.82
42887;BME280;29032;56.028;92.904;2023-04-02T04:04:09;102305.25;;;-1.63;36.32
42887;BME280;29032;56.028;92.904;2023-04-02T04:09:36;102293.81;;;-1.46;35.87
42887;BME280;29032;56.028;92.904;2023-04-02T04:14:43;102291.00;;;-1.53;34.83
42887;BME280;29032;56.028;92.904;2023-04-02T04:19:51;102287.38;;;-1.61;35.78
42887;BME280;29032;56.028;92.904;2023-04-02T04:24:57;102283.66;;;-1.49;34.88
42887;BME280;29032;56.028;92.904;2023-04-02T04:30:23;102280.00;;;-1.30;33.84
42887;BME280;29032;56.028;92.904;2023-04-02T04:35:30;102268.50;;;-1.16;33.62
42887;BME280;29032;56.028;92.904;2023-04-02T04:40:43;102268.28;;;-1.04;33.80
42887;BME280;29032;56.028;92.904;2023-04-02T04:45:50;102261.66;;;-1.03;32.49
42887;BME280;29032;56.028;92.904;2023-04-02T04:51:19;102243.06;;;-0.94;33.35
42887;BME280;29032;56.028;92.904;2023-04-02T04:56:47;102228.78;;;-0.84;33.39
42887;BME280;29032;56.028;92.904;2023-04-02T05:02:12;102233.06;;;-0.83;32.75
42887;BME280;29032;56.028;92.904;2023-04-02T05:07:20;102222.50;;;-0.88;33.01
42887;BME280;29032;56.028;92.904;2023-04-02T05:12:49;102206.22;;;-0.81;33.62
42887;BME280;29032;56.028;92.904;2023-04-02T05:18:18;102202.88;;;-0.63;33.64
42887;BME280;29032;56.028;92.904;2023-04-02T05:23:26;102198.38;;;-0.41;33.54
42887;BME280;29032;56.028;92.904;2023-04-02T05:28:34;102195.34;;;-0.33;32.35
42887;BME280;29032;56.028;92.904;2023-04-02T05:33:44;102188.59;;;0.13;33.54
42887;BME280;29032;56.028;92.904;2023-04-02T05:38:48;102182.25;;;0.71;31.64
42887;BME280;29032;56.028;92.904;2023-04-02T05:44:17;102172.19;;;1.39;31.56
42887;BME280;29032;56.028;92.904;2023-04-02T05:49:24;102158.78;;;2.16;30.77
42887;BME280;29032;56.028;92.904;2023-04-02T05:54:33;102151.94;;;2.67;29.70
42887;BME280;29032;56.028;92.904;2023-04-02T05:59:43;102147.03;;;2.99;29.27
42887;BME280;29032;56.028;92.904;2023-04-02T06:04:55;102141.31;;;3.28;28.26
42887;BME280;29032;56.028;92.904;2023-04-02T06:10:07;102133.13;;;3.24;28.48
42887;BME280;29032;56.028;92.904;2023-04-02T06:15:33;102129.25;;;3.63;27.67
42887;BME280;29032;56.028;92.904;2023-04-02T06:20:42;102129.22;;;3.66;27.85
42887;BME280;29032;56.028;92.904;2023-04-02T06:26:06;102120.50;;;3.75;26.87
42887;BME280;29032;56.028;92.904;2023-04-02T06:31:22;102105.31;;;4.01;25.94
42887;BME280;29032;56.028;92.904;2023-04-02T06:36:27;102101.66;;;3.77;28.22
42887;BME280;29032;56.028;92.904;2023-04-02T06:41:30;102094.56;;;3.80;27.42
42887;BME280;29032;56.028;92.904;2023-04-02T06:47:15;102088.59;;;3.85;25.09
42887;BME280;29032;56.028;92.904;2023-04-02T06:52:25;102077.41;;;3.31;27.15
42887;BME280;29032;56.028;92.904;2023-04-02T06:57:29;102082.22;;;3.57;27.89
42887;BME280;29032;56.028;92.904;2023-04-02T07:02:52;102070.03;;;3.62;26.24
42887;BME280;29032;56.028;92.904;2023-04-02T07:07:56;102051.75;;;3.48;28.13
42887;BME280;29032;56.028;92.904;2023-04-02T07:12:58;102032.16;;;3.46;27.33
42887;BME280;29032;56.028;92.904;2023-04-02T07:18:26;102026.44;;;3.67;26.68
42887;BME280;29032;56.028;92.904;2023-04-02T07:23:31;102026.13;;;3.21;25.53
42887;BME280;29032;56.028;92.904;2023-04-02T07:28:33;102032.44;;;3.18;27.18
42887;BME280;29032;56.028;92.904;2023-04-02T07:33:57;102015.56;;;3.57;27.77
42887;BME280;29032;56.028;92.904;2023-04-02T07:39:00;102003.97;;;3.42;24.73
42887;BME280;29032;56.028;92.904;2023-04-02T07:44:03;102005.44;;;3.12;25.82
42887;BME280;29032;56.028;92.904;2023-04-02T07:49:07;101989.25;;;3.22;26.73
42887;BME280;29032;56.028;92.904;2023-04-02T07:54:09;101992.97;;;3.42;26.66
42887;BME280;29032;56.028;92.904;2023-04-02T07:59:12;101985.56;;;3.73;28.22
42887;BME280;29032;56.028;92.904;2023-04-02T08:04:18;101978.00;;;4.11;26.69
42887;BME280;29032;56.028;92.904;2023-04-02T08:09:20;101964.81;;;3.99;26.30
42887;BME280;29032;56.028;92.904;2023-04-02T08:14:42;101937.28;;;4.30;27.87
42887;BME280;29032;56.028;92.904;2023-04-02T08:19:45;101942.81;;;5.00;28.38
42887;BME280;29032;56.028;92.904;2023-04-02T08:24:48;101938.31;;;5.29;26.45
42887;BME280;29032;56.028;92.904;2023-04-02T08:29:51;101927.50;;;5.19;27.18
42887;BME280;29032;56.028;92.904;2023-04-02T08:34:55;101924.19;;;5.47;26.45
42887;BME280;29032;56.028;92.904;2023-04-02T08:40:21;101908.53;;;5.80;27.67
42887;BME280;29032;56.028;92.904;2023-04-02T08:45:35;101905.97;;;5.89;27.82
42887;BME280;29032;56.028;92.904;2023-04-02T08:50:43;101906.16;;;5.99;25.96
42887;BME280;29032;56.028;92.904;2023-04-02T08:55:53;101894.09;;;6.25;27.84
42887;BME280;29032;56.028;92.904;2023-04-02T09:01:00;101888.53;;;6.29;27.11
42887;BME280;29032;56.028;92.904;2023-04-02T09:06:07;101874.63;;;6.32;27.29
42887;BME280;29032;56.028;92.904;2023-04-02T09:11:33;101870.69;;;6.33;25.44
42887;BME280;29032;56.028;92.904;2023-04-02T09:16:43;101859.16;;;6.06;26.14
42887;BME280;29032;56.028;92.904;2023-04-02T09:21:56;101853.94;;;5.39;27.08
42887;BME280;29032;56.028;92.904;2023-04-02T09:27:00;101844.00;;;5.25;24.96
42887;BME280;29032;56.028;92.904;2023-04-02T09:32:11;101837.31;;;5.63;26.54
42887;BME280;29032;56.028;92.904;2023-04-02T09:37:40;101829.16;;;6.69;26.88
42887;BME280;29032;56.028;92.904;2023-04-02T09:42:42;101823.59;;;7.78;22.98
42887;BME280;29032;56.028;92.904;2023-04-02T09:48:16;101817.53;;;7.84;24.86
42887;BME280;29032;56.028;92.904;2023-04-02T09:54:07;101809.34;;;6.87;25.64
42887;BME280;29032;56.028;92.904;2023-04-02T09:59:14;101803.72;;;6.16;26.49
42887;BME280;29032;56.028;92.904;2023-04-02T10:04:33;101796.94;;;6.21;27.43
42887;BME280;29032;56.028;92.904;2023-04-02T10:09:58;101783.84;;;5.76;27.41
42887;BME280;29032;56.028;92.904;2023-04-02T10:15:03;101778.16;;;5.51;25.41
42887;BME280;29032;56.028;92.904;2023-04-02T10:20:16;101769.88;;;5.35;26.39
42887;BME280;29032;56.028;92.904;2023-04-02T10:25:25;101763.34;;;4.92;26.20
42887;BME280;29032;56.028;92.904;2023-04-02T10:30:49;101745.94;;;4.75;27.28
42887;BME280;29032;56.028;92.904;2023-04-02T10:36:25;101748.88;;;4.85;27.23
42887;BME280;29032;56.028;92.904;2023-04-02T10:41:34;101738.91;;;4.74;26.44
42887;BME280;29032;56.028;92.904;2023-04-02T10:47:11;101733.88;;;4.69;27.30
42887;BME280;29032;56.028;92.904;2023-04-02T10:52:19;101725.78;;;4.62;26.54
42887;BME280;29032;56.028;92.904;2023-04-02T10:57:31;101731.56;;;4.48;26.81
42887;BME280;29032;56.028;92.904;2023-04-02T11:02:57;101722.44;;;4.11;27.46
42887;BME280;29032;56.028;92.904;2023-04-02T11:08:03;101724.25;;;3.98;27.86
42887;BME280;29032;56.028;92.904;2023-04-02T11:13:15;101721.44;;;4.02;28.05
42887;BME280;29032;56.028;92.904;2023-04-02T11:18:38;101718.66;;;3.82;27.38
42887;BME280;29032;56.028;92.904;2023-04-02T11:23:57;101717.31;;;3.90;27.52
42887;BME280;29032;56.028;92.904;2023-04-02T11:29:23;101724.72;;;3.93;27.92
42887;BME280;29032;56.028;92.904;2023-04-02T11:40:40;101697.63;;;3.95;28.10
42887;BME280;29032;56.028;92.904;2023-04-02T11:45:54;101686.88;;;3.57;27.26
42887;BME280;29032;56.028;92.904;2023-04-02T11:50:57;101695.97;;;3.27;27.74
42887;BME280;29032;56.028;92.904;2023-04-02T11:56:08;101692.78;;;3.32;27.57
42887;BME280;29032;56.028;92.904;2023-04-02T12:01:40;101693.41;;;3.17;27.54
42887;BME280;29032;56.028;92.904;2023-04-02T12:06:57;101694.06;;;2.97;28.29
42887;BME280;29032;56.028;92.904;2023-04-02T12:12:26;101685.25;;;2.82;28.20
42887;BME280;29032;56.028;92.904;2023-04-02T12:17:32;101681.09;;;2.71;28.29
42887;BME280;29032;56.028;92.904;2023-04-02T12:22:37;101682.06;;;2.57;28.95
42887;BME280;29032;56.028;92.904;2023-04-02T12:27:41;101677.63;;;2.36;29.14
42887;BME280;29032;56.028;92.904;2023-04-02T12:32:48;101675.31;;;2.31;28.79
42887;BME280;29032;56.028;92.904;2023-04-02T12:37:52;101679.75;;;2.21;30.06
42887;BME280;29032;56.028;92.904;2023-04-02T12:42:55;101670.00;;;2.17;29.26
42887;BME280;29032;56.028;92.904;2023-04-02T12:48:01;101670.31;;;2.26;31.10
42887;BME280;29032;56.028;92.904;2023-04-02T12:53:17;101665.38;;;2.44;29.58
42887;BME280;29032;56.028;92.904;2023-04-02T12:58:28;101670.22;;;2.64;27.45
42887;BME280;29032;56.028;92.904;2023-04-02T13:03:32;101667.16;;;2.58;26.50
42887;BME280;29032;56.028;92.904;2023-04-02T13:08:38;101680.25;;;2.43;25.87
42887;BME280;29032;56.028;92.904;2023-04-02T13:13:42;101669.22;;;2.50;28.38
42887;BME280;29032;56.028;92.904;2023-04-02T13:18:47;101624.78;;;2.01;26.02
42887;BME280;29032;56.028;92.904;2023-04-02T13:23:49;101666.00;;;2.25;26.13
42887;BME280;29032;56.028;92.904;2023-04-02T13:28:55;101669.84;;;2.31;25.85
42887;BME280;29032;56.028;92.904;2023-04-02T13:33:59;101669.91;;;2.24;25.42
42887;BME280;29032;56.028;92.904;2023-04-02T13:39:01;101667.72;;;2.12;26.14
42887;BME280;29032;56.028;92.904;2023-04-02T13:44:03;101653.34;;;2.00;25.49
42887;BME280;29032;56.028;92.904;2023-04-02T13:49:09;101660.31;;;2.09;25.90
42887;BME280;29032;56.028;92.904;2023-04-02T13:54:17;101651.22;;;2.19;27.81
42887;BME280;29032;56.028;92.904;2023-04-02T13:59:20;101643.44;;;2.14;25.84
42887;BME280;29032;56.028;92.904;2023-04-02T14:04:27;101639.78;;;1.90;24.83
42887;BME280;29032;56.028;92.904;2023-04-02T14:09:38;101637.59;;;1.74;26.07
42887;BME280;29032;56.028;92.904;2023-04-02T14:14:51;101643.13;;;1.67;25.25
42887;BME280;29032;56.028;92.904;2023-04-02T14:20:29;101628.09;;;1.44;25.60
42887;BME280;29032;56.028;92.904;2023-04-02T14:25:37;101625.75;;;1.43;24.85
42887;BME280;29032;56.028;92.904;2023-04-02T14:30:48;101623.94;;;1.29;25.34
42887;BME280;29032;56.028;92.904;2023-04-02T14:36:02;101621.66;;;1.17;25.78
42887;BME280;29032;56.028;92.904;2023-04-02T14:41:09;101624.03;;;1.15;25.55
42887;BME280;29032;56.028;92.904;2023-04-02T14:46:15;101619.28;;;1.23;25.15
42887;BME280;29032;56.028;92.904;2023-04-02T14:51:22;101624.63;;;1.37;26.25
42887;BME280;29032;56.028;92.904;2023-04-02T14:56:25;101612.28;;;1.22;25.35
42887;BME280;29032;56.028;92.904;2023-04-02T15:01:32;101615.41;;;1.20;26.05
42887;BME280;29032;56.028;92.904;2023-04-02T15:06:41;101606.03;;;1.17;26.68
42887;BME280;29032;56.028;92.904;2023-04-02T15:11:49;101606.19;;;1.00;26.23
42887;BME280;29032;56.028;92.904;2023-04-02T15:16:52;101586.03;;;0.76;24.79
42887;BME280;29032;56.028;92.904;2023-04-02T15:22:06;101589.34;;;0.49;25.21
42887;BME280;29032;56.028;92.904;2023-04-02T15:27:27;101593.34;;;0.20;24.82
42887;BME280;29032;56.028;92.904;2023-04-02T15:32:38;101590.69;;;0.09;24.61
42887;BME280;29032;56.028;92.904;2023-04-02T15:37:45;101572.34;;;0.13;24.56
42887;BME280;29032;56.028;92.904;2023-04-02T15:42:55;101574.59;;;0.32;24.32
42887;BME280;29032;56.028;92.904;2023-04-02T15:54:02;101552.28;;;0.48;24.26
42887;BME280;29032;56.028;92.904;2023-04-02T15:59:23;101576.09;;;0.41;24.01
42887;BME280;29032;56.028;92.904;2023-04-02T16:04:45;101591.81;;;0.22;25.07
42887;BME280;29032;56.028;92.904;2023-04-02T16:09:59;101592.59;;;0.19;24.00
42887;BME280;29032;56.028;92.904;2023-04-02T16:15:13;101592.63;;;0.08;24.08
42887;BME280;29032;56.028;92.904;2023-04-02T16:20:20;101581.03;;;-0.13;23.60
42887;BME280;29032;56.028;92.904;2023-04-02T16:25:29;101573.22;;;-0.19;23.10
42887;BME280;29032;56.028;92.904;2023-04-02T16:30:40;101561.53;;;-0.23;24.14
42887;BME280;29032;56.028;92.904;2023-04-02T16:35:54;101554.97;;;-0.36;23.51
42887;BME280;29032;56.028;92.904;2023-04-02T16:41:06;101553.81;;;-0.35;23.75
42887;BME280;29032;56.028;92.904;2023-04-02T16:46:16;101547.59;;;-0.46;23.26
42887;BME280;29032;56.028;92.904;2023-04-02T16:51:28;101553.47;;;-0.62;23.97
42887;BME280;29032;56.028;92.904;2023-04-02T16:56:46;101555.44;;;-0.77;24.33
42887;BME280;29032;56.028;92.904;2023-04-02T17:01:58;101543.75;;;-0.95;24.07
42887;BME280;29032;56.028;92.904;2023-04-02T17:07:09;101532.47;;;-0.97;24.83
42887;BME280;29032;56.028;92.904;2023-04-02T17:12:20;101534.81;;;-0.92;25.02
42887;BME280;29032;56.028;92.904;2023-04-02T17:17:25;101518.81;;;-0.83;25.38
42887;BME280;29032;56.028;92.904;2023-04-02T17:22:29;101519.22;;;-0.81;24.37
42887;BME280;29032;56.028;92.904;2023-04-02T17:27:36;101523.91;;;-0.88;25.31
42887;BME280;29032;56.028;92.904;2023-04-02T17:32:39;101523.16;;;-1.07;24.76
42887;BME280;29032;56.028;92.904;2023-04-02T17:37:44;101531.69;;;-1.30;25.40
42887;BME280;29032;56.028;92.904;2023-04-02T17:42:52;101518.44;;;-1.38;25.52
42887;BME280;29032;56.028;92.904;2023-04-02T17:48:23;101530.50;;;-1.46;25.95
42887;BME280;29032;56.028;92.904;2023-04-02T17:53:41;101518.44;;;-1.49;26.26
42887;BME280;29032;56.028;92.904;2023-04-02T17:59:06;101532.47;;;-1.40;26.33
42887;BME280;29032;56.028;92.904;2023-04-02T18:04:21;101518.47;;;-1.35;27.06
42887;BME280;29032;56.028;92.904;2023-04-02T18:15:04;101500.53;;;-1.14;26.78
42887;BME280;29032;56.028;92.904;2023-04-02T18:20:19;101491.22;;;-1.06;26.89
42887;BME280;29032;56.028;92.904;2023-04-02T18:25:35;101495.09;;;-1.11;26.19
42887;BME280;29032;56.028;92.904;2023-04-02T18:31:08;101483.81;;;-1.38;26.84
42887;BME280;29032;56.028;92.904;2023-04-02T18:36:39;101473.72;;;-1.48;27.16
42887;BME280;29032;56.028;92.904;2023-04-02T18:41:53;101476.03;;;-1.53;28.13
42887;BME280;29032;56.028;92.904;2023-04-02T18:47:08;101475.25;;;-1.58;27.33
42887;BME280;29032;56.028;92.904;2023-04-02T18:52:17;101465.91;;;-1.64;27.64
42887;BME280;29032;56.028;92.904;2023-04-02T18:57:22;101465.13;;;-1.68;27.61
42887;BME280;29032;56.028;92.904;2023-04-02T19:07:56;101462.41;;;-1.57;27.75
42887;BME280;29032;56.028;92.904;2023-04-02T19:13:00;101468.25;;;-1.48;27.83
42887;BME280;29032;56.028;92.904;2023-04-02T19:18:09;101461.66;;;-1.47;27.74
42887;BME280;29032;56.028;92.904;2023-04-02T19:23:30;101460.84;;;-1.37;27.99
42887;BME280;29032;56.028;92.904;2023-04-02T19:28:40;101459.69;;;-1.43;28.10
42887;BME280;29032;56.028;92.904;2023-04-02T19:33:50;101458.53;;;-1.35;28.70
42887;BME280;29032;56.028;92.904;2023-04-02T19:44:42;101438.31;;;-1.26;28.73
42887;BME280;29032;56.028;92.904;2023-04-02T19:49:47;101457.38;;;-1.34;28.72
42887;BME280;29032;56.028;92.904;2023-04-02T19:54:50;101450.38;;;-1.52;28.98
42887;BME280;29032;56.028;92.904;2023-04-02T19:59:53;101434.03;;;-1.56;29.11
42887;BME280;29032;56.028;92.904;2023-04-02T20:05:15;101435.56;;;-1.51;29.12
42887;BME280;29032;56.028;92.904;2023-04-02T20:10:17;101442.59;;;-1.47;29.86
42887;BME280;29032;56.028;92.904;2023-04-02T20:15:19;101428.97;;;-1.33;29.60
42887;BME280;29032;56.028;92.904;2023-04-02T20:20:23;101438.69;;;-1.24;29.57
42887;BME280;29032;56.028;92.904;2023-04-02T20:25:25;101429.72;;;-1.14;29.92
42887;BME280;29032;56.028;92.904;2023-04-02T20:30:28;101420.72;;;-1.01;29.86
42887;BME280;29032;56.028;92.904;2023-04-02T20:35:32;101406.69;;;-0.85;30.16
42887;BME280;29032;56.028;92.904;2023-04-02T20:40:34;101404.00;;;-0.92;29.62
42887;BME280;29032;56.028;92.904;2023-04-02T20:50:59;101390.41;;;-1.06;29.52
42887;BME280;29032;56.028;92.904;2023-04-02T20:56:02;101389.63;;;-1.17;29.25
42887;BME280;29032;56.028;92.904;2023-04-02T21:01:07;101381.84;;;-1.22;29.49
42887;BME280;29032;56.028;92.904;2023-04-02T21:06:14;101368.22;;;-1.12;29.39
42887;BME280;29032;56.028;92.904;2023-04-02T21:16:38;101351.41;;;-0.89;29.73
42887;BME280;29032;56.028;92.904;2023-04-02T21:21:43;101356.78;;;-0.67;29.45
42887;BME280;29032;56.028;92.904;2023-04-02T21:26:45;101344.59;;;-0.49;29.91
42887;BME280;29032;56.028;92.904;2023-04-02T21:31:47;101331.28;;;-0.36;29.55
42887;BME280;29032;56.028;92.904;2023-04-02T21:36:51;101321.94;;;-0.38;29.59
42887;BME280;29032;56.028;92.904;2023-04-02T21:41:54;101323.97;;;-0.53;30.16
42887;BME280;29032;56.028;92.904;2023-04-02T21:47:14;101314.72;;;-0.74;30.19
42887;BME280;29032;56.028;92.904;2023-04-02T21:52:36;101306.22;;;-0.83;30.02
42887;BME280;29032;56.028;92.904;2023-04-02T21:57:38;101306.28;;;-1.01;29.73
42887;BME280;29032;56.028;92.904;2023-04-02T22:02:40;101298.53;;;-1.06;30.00
42887;BME280;29032;56.028;92.904;2023-04-02T22:08:04;101288.00;;;-1.00;29.95
42887;BME280;29032;56.028;92.904;2023-04-02T22:13:06;101275.16;;;-1.03;29.54
42887;BME280;29032;56.028;92.904;2023-04-02T22:18:28;101286.03;;;-0.96;30.15
42887;BME280;29032;56.028;92.904;2023-04-02T22:23:33;101271.59;;;-0.86;29.63
42887;BME280;29032;56.028;92.904;2023-04-02T22:28:36;101275.50;;;-0.94;29.80
42887;BME280;29032;56.028;92.904;2023-04-02T22:33:38;101272.44;;;-1.03;29.28
42887;BME280;29032;56.028;92.904;2023-04-02T22:38:42;101270.16;;;-1.15;29.69
42887;BME280;29032;56.028;92.904;2023-04-02T22:43:45;101247.25;;;-1.36;29.49
42887;BME280;29032;56.028;92.904;2023-04-02T22:48:48;101238.75;;;-1.45;30.16
42887;BME280;29032;56.028;92.904;2023-04-02T22:53:54;101239.16;;;-1.53;30.01
42887;BME280;29032;56.028;92.904;2023-04-02T22:58:56;101245.00;;;-1.55;30.42
42887;BME280;29032;56.028;92.904;2023-04-02T23:03:58;101246.88;;;-1.38;29.78
42887;BME280;29032;56.028;92.904;2023-04-02T23:09:02;101250.31;;;-1.16;30.08
42887;BME280;29032;56.028;92.904;2023-04-02T23:14:04;101254.94;;;-1.06;29.55
42887;BME280;29032;56.028;92.904;2023-04-02T23:24:28;101231.56;;;-1.03;29.86
42887;BME280;29032;56.028;92.904;2023-04-02T23:29:30;101232.31;;;-0.95;29.61
42887;BME280;29032;56.028;92.904;2023-04-02T23:34:33;101236.28;;;-1.11;29.73
42887;BME280;29032;56.028;92.904;2023-04-02T23:39:37;101240.53;;;-1.06;29.86
42887;BME280;29032;56.028;92.904;2023-04-02T23:44:39;101246.00;;;-1.06;29.63
42887;BME280;29032;56.028;92.904;2023-04-02T23:49:59;101241.69;;;-1.07;29.42
42887;BME280;29032;56.028;92.904;2023-04-02T23:55:03;101231.25;;;-1.19;29.71
